Nearby METAR Reports

 

KBJC - Broomfield/Jeffc, Colorado, USA
Distance from station: NNW 11mi, 17km
Updated: 11/19/2018 11:45am
Few Clouds
Few Clouds
 Wind from calm
Wind: Calm
Temperature: 46°F , 8°C
Dew Point: 10°F , -12°C
Humidity: 23%
Barometer: 30.21 inHg , 1023 hPa
Clouds: Few Clouds
Visibility: 30 miles , 48 km
Cloud details: Few Clouds 10000 ft
2018/11/19 18:45 KBJC 191845Z 00000KT 30SM FEW100 08/M12 A3021
KBKF - Buckley Angb/Den, Colorado, USA
Distance from station: E 16mi, 25km
Updated: 11/19/2018 11:58am
Few Clouds
Few Clouds
 Wind from ENE
Wind: ENE 6 mph , 9 km/h
Temperature: 48°F , 9°C
Wind Chill: 45°F , 7°C
Dew Point: 7°F , -14°C
Humidity: 18%
Barometer: 30.19 inHg , 1022.4 hPa
Clouds: Few Clouds
Visibility: 10 miles , 16 km
Cloud details: Few Clouds 11000 ft
Few Clouds 20000 ft
2018/11/19 18:58 KBKF 191858Z 06005KT 10SM FEW110 FEW200 09/M14 A3019 RMK AO2A SLP222 T00941138
 
KAPA - Denver/Arapahoe, Colorado, USA
Distance from station: SE 16mi, 26km
Updated: 11/19/2018 11:53am
Few Clouds
Few Clouds
 Wind from E
Wind: E 6 mph , 9 km/h
Temperature: 46°F , 8°C
Wind Chill: 43°F , 6°C
Dew Point: 7°F , -14°C
Humidity: 20%
Barometer: 30.19 inHg , 1022.4 hPa
Clouds: Few Clouds
Visibility: 10 miles , 16 km
Cloud details: Few Clouds 10000 ft
2018/11/19 18:53 KAPA 191853Z 10005KT 10SM FEW100 08/M14 A3019 RMK AO2 SLP239 T00781139
KEIK - Erie Muni, Colorado, USA
Distance from station: N 18mi, 29km
Updated: 11/19/2018 12:30pm
Clear
Clear
 Wind from N
Wind: N 3 mph , 6 km/h
Temperature: 46°F , 8°C
Dew Point: 25°F , -4°C
Humidity: 43%
Barometer: 30.25 inHg , 1024.4 hPa
Clouds: Clear
Visibility: 10 miles , 16 km
2018/11/19 19:30 KEIK 191930Z AUTO 01003KT 10SM CLR 08/M04 A3025 RMK AO2 T00761042
 
KBDU - Boulder Muni, Colorado, USA
Distance from station: NNW 22mi, 35km
Updated: 11/19/2018 12:35pm
Clear
Clear
 Wind from calm
Wind: Calm
Temperature: 45°F , 7°C
Dew Point: 21°F , -6°C
Humidity: 39%
Barometer: 30.20 inHg , 1022.7 hPa
Clouds: Clear
Visibility: 10 miles , 16 km
2018/11/19 19:35 KBDU 191935Z AUTO 00000KT 10SM CLR 07/M06 A3020 RMK AO2
KDEN - Denver (dia), Colorado, USA
Distance from station: ENE 22mi, 35km
Updated: 11/19/2018 11:53am
Few Clouds
Few Clouds
 Wind from ESE
Wind: ESE 10 mph , 17 km/h
Temperature: 48°F , 9°C
Wind Chill: 44°F , 7°C
Dew Point: 14°F , -10°C
Humidity: 25%
Barometer: 30.20 inHg , 1022.7 hPa
Clouds: Few Clouds
Visibility: 10 miles , 16 km
Cloud details: Few Clouds 10000 ft
Few Clouds 20000 ft
2018/11/19 18:53 KDEN 191853Z 12009KT 10SM FEW100 FEW200 09/M10 A3020 RMK AO2 SLP222 T00891100
 
KFTG - Denver F. Range, Colorado, USA
Distance from station: E 26mi, 42km
Updated: 11/19/2018 11:47am
Few Clouds
Few Clouds
 Wind from SE
Wind: SE 12 mph , 19 km/h
Temperature: 48°F , 9°C
Wind Chill: 43°F , 6°C
Dew Point: 16°F , -9°C
Humidity: 27%
Barometer: 30.22 inHg , 1023.4 hPa
Clouds: Few Clouds
Visibility: 10 miles , 16 km
Cloud details: Few Clouds 9500 ft
Few Clouds 22000 ft
2018/11/19 18:47 KFTG 191847Z 13010KT 10SM FEW095 FEW220 09/M09 A3022
KLMO - Longmont/Vbrand, Colorado, USA
Distance from station: NNW 29mi, 47km
Updated: 11/19/2018 12:35pm
Clear
Clear
 Wind from calm
Wind: Calm
Temperature: 50°F , 10°C
Dew Point: 25°F , -4°C
Humidity: 37%
Barometer: 30.21 inHg , 1023 hPa
Clouds: Clear
Visibility: 10 miles , 16 km
2018/11/19 19:35 KLMO 191935Z AUTO 00000KT 10SM CLR 10/M04 A3021 RMK AO2 T00971043
 
K0CO - Berthoud Pass, Colorado, USA
Distance from station: W 39mi, 62km
Updated: 11/19/2018 12:42pm
Clear
Clear
 Wind from NW
Wind: NW 14 mph , 22 km/h, Gust: 28 mph , 44 km/h
Temperature: 14°F , -10°C
Wind Chill: -1°F , -18°C
Dew Point: 1°F , -17°C
Humidity: 57%
Barometer: 30.22 inHg , 1023.4 hPa
Clouds: Clear
Visibility: 10 miles , 16 km
2018/11/19 19:42 K0CO 191942Z AUTO 32012G24KT 10SM CLR M10/M17 A3022 RMK AO2
KMNH - Monument/Elbert, Colorado, USA
Distance from station: SSE 43mi, 68km
Updated: 11/19/2018 12:24pm
Clear
Clear
 Wind from calm
Wind: Calm
Temperature: 41°F , 5°C
Dew Point: 3°F , -16°C
Humidity: 20%
Barometer: 30.21 inHg , 1023 hPa
Clouds: Clear
Visibility: 10 miles , 16 km
2018/11/19 19:24 KMNH 191924Z AUTO 00000KT 10SM CLR 05/M16 A3021 RMK AO2
 
KFNL - Ft Collins/Lovel, Colorado, USA
Distance from station: N 48mi, 78km
Updated: 11/19/2018 11:56am
Clear
Clear
 Wind from SSW
Wind: SSW 7 mph , 11 km/h
Temperature: 45°F , 7°C
Wind Chill: 41°F , 5°C
Dew Point: 21°F , -6°C
Humidity: 39%
Barometer: 30.21 inHg , 1023 hPa
Clouds: Clear
Visibility: 10 miles , 16 km
2018/11/19 18:56 KFNL 191856Z AUTO 20006KT 10SM CLR 07/M06 A3021 RMK AO2 SLP240 T00671061 PNO $